Time;durP1;ratioP1;P1;durP2;ratioP2;P2;SDS_P1;SDS_P2;PMS_P1;PMS_P2;Temp;Humidity;BMP_temperature;BMP_pressure;BME280_temperature;BME280_humidity;BME280_pressure;Samples;Min_cycle;Max_cycle;Signal;HPM_P1;HPM_P2
2023/11/01 00:01:45;;;;;;;0.50;0.50;;;;;;;;;;6281484;28;20323;-70
2023/11/01 00:04:48;;;;;;;0.50;0.50;;;;;;;;;;6280992;28;20298;-70
2023/11/01 00:07:52;;;;;;;0.60;0.60;;;;;;;;;;6280835;28;20282;-70
2023/11/01 00:10:56;;;;;;;0.50;0.50;;;;;;;;;;6281071;28;20298;-70
2023/11/01 00:14:02;;;;;;;0.70;0.70;;;;;;;;;;6281186;28;20618;-72
2023/11/01 00:17:07;;;;;;;0.60;0.60;;;;;;;;;;6281298;28;20299;-70
2023/11/01 00:20:11;;;;;;;0.70;0.70;;;;;;;;;;6280776;28;20290;-69
2023/11/01 00:23:15;;;;;;;0.60;0.60;;;;;;;;;;6280478;28;20294;-69
2023/11/01 00:26:19;;;;;;;0.60;0.60;;;;;;;;;;6281049;28;20306;-69
2023/11/01 00:29:29;;;;;;;0.52;0.52;;;;;;;;;;6280575;28;20303;-70
2023/11/01 00:32:33;;;;;;;0.98;0.63;;;;;;;;;;6280121;28;20686;-71
2023/11/01 00:35:36;;;;;;;0.60;0.60;;;;;;;;;;6279002;28;20375;-71
2023/11/01 00:38:40;;;;;;;0.52;0.52;;;;;;;;;;6280082;28;20295;-71
2023/11/01 00:41:44;;;;;;;0.75;0.68;;;;;;;;;;6280666;28;20271;-70
2023/11/01 00:44:49;;;;;;;0.60;0.60;;;;;;;;;;6283064;28;20306;-70
2023/11/01 00:47:53;;;;;;;1.20;0.60;;;;;;;;;;6299901;28;20580;-71
2023/11/01 00:50:57;;;;;;;0.90;0.70;;;;;;;;;;6285604;28;20283;-70
2023/11/01 00:54:00;;;;;;;1.65;0.80;;;;;;;;;;6280788;28;20283;-70
2023/11/01 00:57:04;;;;;;;2.30;0.90;;;;;;;;;;6283769;28;20299;-70
2023/11/01 01:00:10;;;;;;;0.70;0.70;;;;;;;;;;6282886;28;20530;-71
2023/11/01 01:03:14;;;;;;;0.60;0.60;;;;;;;;;;6284541;28;20527;-70
2023/11/01 01:06:19;;;;;;;0.70;0.70;;;;;;;;;;6285273;28;20327;-70
2023/11/01 01:09:23;;;;;;;0.90;0.90;;;;;;;;;;6283128;28;20291;-70
2023/11/01 01:12:27;;;;;;;0.65;0.65;;;;;;;;;;6258428;28;20315;-70
2023/11/01 01:15:32;;;;;;;0.70;0.70;;;;;;;;;;6274919;28;20299;-70
2023/11/01 01:18:36;;;;;;;0.80;0.60;;;;;;;;;;6259648;28;20308;-71
2023/11/01 01:21:40;;;;;;;0.70;0.70;;;;;;;;;;6260043;28;20291;-71
2023/11/01 01:24:43;;;;;;;0.80;0.80;;;;;;;;;;6259454;28;20303;-70
2023/11/01 01:27:47;;;;;;;0.60;0.60;;;;;;;;;;6257504;28;20304;-70
2023/11/01 01:30:52;;;;;;;0.60;0.60;;;;;;;;;;6257922;28;20295;-71
2023/11/01 01:33:56;;;;;;;4.15;0.60;;;;;;;;;;6259803;28;20307;-70
2023/11/01 01:37:00;;;;;;;1.38;0.75;;;;;;;;;;6258487;28;20315;-70
2023/11/01 01:40:05;;;;;;;0.77;0.77;;;;;;;;;;6259663;28;20307;-71
2023/11/01 01:43:17;;;;;;;0.60;0.60;;;;;;;;;;6259154;28;20292;-70
2023/11/01 01:46:22;;;;;;;0.70;0.70;;;;;;;;;;6259497;28;20299;-70
2023/11/01 01:49:26;;;;;;;0.57;0.57;;;;;;;;;;6258795;28;20304;-70
2023/11/01 01:52:40;;;;;;;0.60;0.60;;;;;;;;;;6255670;28;20288;-75
2023/11/01 01:55:46;;;;;;;0.60;0.60;;;;;;;;;;6256326;28;20315;-70
2023/11/01 01:58:51;;;;;;;0.57;0.57;;;;;;;;;;6256886;28;20283;-70
2023/11/01 02:01:57;;;;;;;0.50;0.50;;;;;;;;;;6257718;28;20303;-70
2023/11/01 02:05:01;;;;;;;0.40;0.40;;;;;;;;;;6256718;28;20307;-70
2023/11/01 02:08:05;;;;;;;0.60;0.60;;;;;;;;;;6258664;28;20482;-71
2023/11/01 02:11:09;;;;;;;0.50;0.50;;;;;;;;;;6257500;28;20661;-70
2023/11/01 02:14:13;;;;;;;0.50;0.50;;;;;;;;;;6257394;28;20292;-70
2023/11/01 02:17:18;;;;;;;0.50;0.50;;;;;;;;;;6257815;28;20295;-71
2023/11/01 02:20:22;;;;;;;0.50;0.50;;;;;;;;;;6258907;28;20384;-70
2023/11/01 02:23:33;;;;;;;0.40;0.40;;;;;;;;;;6257292;28;20311;-72
2023/11/01 02:26:37;;;;;;;0.70;0.40;;;;;;;;;;6256407;28;20299;-70
2023/11/01 02:29:41;;;;;;;0.50;0.50;;;;;;;;;;6256876;28;20295;-72
2023/11/01 02:32:47;;;;;;;0.40;0.40;;;;;;;;;;6257014;28;20271;-70
2023/11/01 02:35:52;;;;;;;0.50;0.50;;;;;;;;;;6257277;28;20267;-69
2023/11/01 02:38:57;;;;;;;0.50;0.50;;;;;;;;;;6257748;28;20295;-69
2023/11/01 02:42:00;;;;;;;0.43;0.43;;;;;;;;;;6257041;28;20283;-69
2023/11/01 02:45:09;;;;;;;0.40;0.40;;;;;;;;;;6257590;28;20304;-69
2023/11/01 02:48:12;;;;;;;0.38;0.38;;;;;;;;;;6256511;28;20307;-69
2023/11/01 02:51:17;;;;;;;0.50;0.50;;;;;;;;;;6258106;28;20311;-70
2023/11/01 02:54:22;;;;;;;1.65;0.60;;;;;;;;;;6255862;28;20314;-69
2023/11/01 02:57:26;;;;;;;0.60;0.60;;;;;;;;;;6257893;28;20304;-70
2023/11/01 03:00:30;;;;;;;0.70;0.70;;;;;;;;;;6257583;28;20319;-69
2023/11/01 03:03:33;;;;;;;0.52;0.52;;;;;;;;;;6257315;28;20291;-69
2023/11/01 03:06:37;;;;;;;0.60;0.60;;;;;;;;;;6257396;28;20295;-69
2023/11/01 03:09:42;;;;;;;0.70;0.70;;;;;;;;;;6259179;28;20299;-69
2023/11/01 03:12:46;;;;;;;0.68;0.68;;;;;;;;;;6280501;28;20343;-70
2023/11/01 03:15:50;;;;;;;0.63;0.63;;;;;;;;;;6280368;28;20314;-70
2023/11/01 03:18:54;;;;;;;0.90;0.70;;;;;;;;;;6281749;28;20290;-71
2023/11/01 03:21:57;;;;;;;0.80;0.80;;;;;;;;;;6280913;28;20294;-70
2023/11/01 03:25:03;;;;;;;0.70;0.70;;;;;;;;;;6281686;28;20307;-71
2023/11/01 03:28:06;;;;;;;0.70;0.70;;;;;;;;;;6281631;28;20291;-70
2023/11/01 03:31:10;;;;;;;0.80;0.80;;;;;;;;;;6280023;28;20307;-70
2023/11/01 03:34:14;;;;;;;0.70;0.70;;;;;;;;;;6280044;28;20303;-70
2023/11/01 03:37:18;;;;;;;0.80;0.80;;;;;;;;;;6281670;28;20298;-70
2023/11/01 03:40:23;;;;;;;0.60;0.60;;;;;;;;;;6281250;28;20294;-70
2023/11/01 03:43:27;;;;;;;0.60;0.60;;;;;;;;;;6281033;28;20322;-70
2023/11/01 03:46:30;;;;;;;0.63;0.63;;;;;;;;;;6281497;28;20303;-70
2023/11/01 03:49:34;;;;;;;0.60;0.60;;;;;;;;;;6281403;28;20314;-72
2023/11/01 03:52:38;;;;;;;0.60;0.60;;;;;;;;;;6279249;28;20286;-77
2023/11/01 03:55:43;;;;;;;0.70;0.70;;;;;;;;;;6281534;28;20641;-70
2023/11/01 03:58:47;;;;;;;0.70;0.70;;;;;;;;;;6280765;28;20311;-71
2023/11/01 04:01:51;;;;;;;0.73;0.73;;;;;;;;;;6270289;28;20295;-71
2023/11/01 04:04:55;;;;;;;0.77;0.77;;;;;;;;;;6265175;28;20444;-70
2023/11/01 04:07:59;;;;;;;0.70;0.70;;;;;;;;;;6276975;28;20291;-70
2023/11/01 04:11:04;;;;;;;0.70;0.70;;;;;;;;;;6281339;28;20283;-71
2023/11/01 04:14:08;;;;;;;0.65;0.65;;;;;;;;;;6280852;28;20482;-71
2023/11/01 04:17:12;;;;;;;0.70;0.70;;;;;;;;;;6280991;28;20602;-71
2023/11/01 04:20:15;;;;;;;0.70;0.70;;;;;;;;;;6280365;28;20371;-70
2023/11/01 04:23:19;;;;;;;0.60;0.60;;;;;;;;;;6280242;28;20503;-69
2023/11/01 04:26:25;;;;;;;0.60;0.60;;;;;;;;;;6280743;28;20307;-70
2023/11/01 04:29:29;;;;;;;0.60;0.60;;;;;;;;;;6278435;28;20439;-70
2023/11/01 04:32:32;;;;;;;0.50;0.50;;;;;;;;;;6279618;28;20549;-71
2023/11/01 04:35:36;;;;;;;0.60;0.60;;;;;;;;;;6280707;28;20435;-71
2023/11/01 04:38:41;;;;;;;0.65;0.60;;;;;;;;;;6280287;28;20295;-71
2023/11/01 04:41:46;;;;;;;0.70;0.70;;;;;;;;;;6280924;28;20416;-71
2023/11/01 04:44:51;;;;;;;0.70;0.70;;;;;;;;;;6280082;28;20425;-70
2023/11/01 04:47:54;;;;;;;0.60;0.60;;;;;;;;;;6280111;28;20559;-71
2023/11/01 04:50:59;;;;;;;0.60;0.60;;;;;;;;;;6280809;28;20291;-70
2023/11/01 04:54:06;;;;;;;0.60;0.60;;;;;;;;;;6278291;28;20298;-71
2023/11/01 04:57:11;;;;;;;0.60;0.60;;;;;;;;;;6280530;28;20362;-70
2023/11/01 05:00:16;;;;;;;0.70;0.70;;;;;;;;;;6279884;28;20620;-69
2023/11/01 05:03:20;;;;;;;0.50;0.50;;;;;;;;;;6280069;28;20302;-70
2023/11/01 05:06:26;;;;;;;0.60;0.60;;;;;;;;;;6280112;28;20390;-70
2023/11/01 05:09:30;;;;;;;0.60;0.60;;;;;;;;;;6279856;28;20375;-70
2023/11/01 05:12:35;;;;;;;0.57;0.57;;;;;;;;;;6279629;28;20298;-70
2023/11/01 05:15:39;;;;;;;0.52;0.52;;;;;;;;;;6280271;28;20310;-69
2023/11/01 05:18:43;;;;;;;0.55;0.55;;;;;;;;;;6279370;28;20298;-70
2023/11/01 05:21:47;;;;;;;0.60;0.60;;;;;;;;;;6279805;28;20322;-70
2023/11/01 05:24:50;;;;;;;0.50;0.50;;;;;;;;;;6279579;28;20298;-69
2023/11/01 05:27:56;;;;;;;0.60;0.60;;;;;;;;;;6279550;28;20363;-69
2023/11/01 05:31:00;;;;;;;0.60;0.60;;;;;;;;;;6283370;28;20299;-69
2023/11/01 05:34:05;;;;;;;0.60;0.60;;;;;;;;;;6283989;28;20295;-70
2023/11/01 05:37:11;;;;;;;0.60;0.60;;;;;;;;;;6284145;28;20290;-68
2023/11/01 05:40:15;;;;;;;0.60;0.60;;;;;;;;;;6283850;28;20552;-69
2023/11/01 05:43:20;;;;;;;0.70;0.70;;;;;;;;;;6283506;28;20303;-70
2023/11/01 05:46:23;;;;;;;0.80;0.80;;;;;;;;;;6284119;28;20291;-70
2023/11/01 05:49:27;;;;;;;0.70;0.70;;;;;;;;;;6283724;28;20294;-69
2023/11/01 05:52:31;;;;;;;0.90;0.90;;;;;;;;;;6283821;28;20307;-70
2023/11/01 05:55:36;;;;;;;0.85;0.85;;;;;;;;;;6281717;28;20324;-70
2023/11/01 05:58:58;;;;;;;0.90;0.90;;;;;;;;;;6283433;28;20295;-69
2023/11/01 06:02:02;;;;;;;1.00;1.00;;;;;;;;;;6283906;28;20483;-69
2023/11/01 06:05:07;;;;;;;0.88;0.88;;;;;;;;;;6283331;28;20552;-72
2023/11/01 06:08:10;;;;;;;1.17;1.17;;;;;;;;;;6283016;28;20616;-69
2023/11/01 06:11:14;;;;;;;1.27;1.23;;;;;;;;;;6284053;28;20291;-70
2023/11/01 06:14:20;;;;;;;0.90;0.90;;;;;;;;;;6283999;28;20299;-69
2023/11/01 06:17:24;;;;;;;1.13;1.13;;;;;;;;;;6282406;28;20485;-70
2023/11/01 06:20:28;;;;;;;1.00;1.00;;;;;;;;;;6283381;28;20307;-71
2023/11/01 06:23:32;;;;;;;1.07;1.07;;;;;;;;;;6283167;28;20460;-69
2023/11/01 06:26:36;;;;;;;0.90;0.90;;;;;;;;;;6282602;28;20492;-70
2023/11/01 06:29:42;;;;;;;1.20;1.10;;;;;;;;;;6283097;28;20295;-70
2023/11/01 06:32:46;;;;;;;1.02;1.02;;;;;;;;;;6283136;28;20251;-69
2023/11/01 06:35:50;;;;;;;0.80;0.80;;;;;;;;;;6283465;28;20271;-69
2023/11/01 06:38:54;;;;;;;1.00;1.00;;;;;;;;;;6282521;28;20374;-69
2023/11/01 06:41:58;;;;;;;0.90;0.90;;;;;;;;;;6281046;28;20291;-70
2023/11/01 06:45:03;;;;;;;1.40;1.00;;;;;;;;;;6282073;28;20306;-69
2023/11/01 06:48:09;;;;;;;1.00;1.00;;;;;;;;;;6282175;28;20295;-71
2023/11/01 06:51:14;;;;;;;0.90;0.90;;;;;;;;;;6283026;28;20633;-70
2023/11/01 06:54:18;;;;;;;1.10;1.10;;;;;;;;;;6280331;28;20370;-71
2023/11/01 06:57:22;;;;;;;0.80;0.80;;;;;;;;;;6283002;28;20291;-69
2023/11/01 07:00:27;;;;;;;1.20;1.20;;;;;;;;;;6282158;28;20299;-72
2023/11/01 07:03:31;;;;;;;1.00;1.00;;;;;;;;;;6281396;28;20303;-70
2023/11/01 07:06:35;;;;;;;0.90;0.90;;;;;;;;;;6282159;28;20291;-69
2023/11/01 07:09:39;;;;;;;0.90;0.90;;;;;;;;;;6281443;28;20527;-70
2023/11/01 07:12:42;;;;;;;0.87;0.87;;;;;;;;;;6281623;28;20291;-70
2023/11/01 07:15:48;;;;;;;1.80;0.90;;;;;;;;;;6282034;28;20584;-69
2023/11/01 07:18:52;;;;;;;0.73;0.73;;;;;;;;;;6281364;28;20295;-69
2023/11/01 07:21:56;;;;;;;0.80;0.80;;;;;;;;;;6281796;28;20294;-71
2023/11/01 07:24:59;;;;;;;0.90;0.90;;;;;;;;;;6281253;28;20295;-72
2023/11/01 07:28:03;;;;;;;0.80;0.80;;;;;;;;;;6280922;28;20314;-73
2023/11/01 07:31:08;;;;;;;1.00;1.00;;;;;;;;;;6281644;28;20323;-72
2023/11/01 07:34:12;;;;;;;0.80;0.80;;;;;;;;;;6281253;28;20455;-73
2023/11/01 07:37:16;;;;;;;0.80;0.80;;;;;;;;;;6281261;28;20307;-69
2023/11/01 07:40:20;;;;;;;0.83;0.83;;;;;;;;;;6280253;28;20653;-72
2023/11/01 07:43:23;;;;;;;0.70;0.70;;;;;;;;;;6278873;28;20489;-70
2023/11/01 07:46:28;;;;;;;0.73;0.73;;;;;;;;;;6281335;28;20311;-71
2023/11/01 07:49:32;;;;;;;1.83;0.83;;;;;;;;;;6280601;28;20584;-72
2023/11/01 07:52:36;;;;;;;0.80;0.80;;;;;;;;;;6279847;28;20299;-70
2023/11/01 07:55:39;;;;;;;3.03;2.80;;;;;;;;;;6280530;28;20611;-72
2023/11/01 07:58:44;;;;;;;1.00;1.00;;;;;;;;;;6280787;28;20299;-70
2023/11/01 08:01:49;;;;;;;0.80;0.80;;;;;;;;;;6280967;28;20299;-71
2023/11/01 08:04:53;;;;;;;0.65;0.65;;;;;;;;;;6280404;28;20346;-69
2023/11/01 08:07:56;;;;;;;0.77;0.77;;;;;;;;;;6280500;28;20290;-71
2023/11/01 08:11:00;;;;;;;0.63;0.63;;;;;;;;;;6280992;28;20295;-69
2023/11/01 08:14:06;;;;;;;0.80;0.80;;;;;;;;;;6278518;28;20446;-70
2023/11/01 08:17:11;;;;;;;0.70;0.70;;;;;;;;;;6281062;28;20326;-69
2023/11/01 08:20:15;;;;;;;0.80;0.80;;;;;;;;;;6280531;28;20306;-71
2023/11/01 08:23:18;;;;;;;0.70;0.70;;;;;;;;;;6280330;28;20318;-70
2023/11/01 08:26:23;;;;;;;2.38;1.30;;;;;;;;;;6281271;28;20351;-70
2023/11/01 08:29:27;;;;;;;0.83;0.80;;;;;;;;;;6280456;28;20298;-70
2023/11/01 08:32:32;;;;;;;0.70;0.70;;;;;;;;;;6280788;28;20305;-70
2023/11/01 08:35:36;;;;;;;0.52;0.52;;;;;;;;;;6279511;28;20307;-70
2023/11/01 08:38:40;;;;;;;0.60;0.60;;;;;;;;;;6278841;28;20298;-70
2023/11/01 08:41:43;;;;;;;0.60;0.60;;;;;;;;;;6281130;28;20421;-70
2023/11/01 08:44:47;;;;;;;0.70;0.70;;;;;;;;;;6280370;28;20318;-71
2023/11/01 08:47:52;;;;;;;0.60;0.60;;;;;;;;;;6281042;28;20487;-69
2023/11/01 08:50:56;;;;;;;0.60;0.60;;;;;;;;;;6280914;28;20406;-71
2023/11/01 08:54:00;;;;;;;1.25;0.60;;;;;;;;;;6278611;28;20298;-70
2023/11/01 08:57:05;;;;;;;0.80;0.80;;;;;;;;;;6280711;28;20507;-70
2023/11/01 09:00:10;;;;;;;0.57;0.57;;;;;;;;;;6280400;28;20579;-69
2023/11/01 09:03:16;;;;;;;0.70;0.70;;;;;;;;;;6279854;28;20298;-70
2023/11/01 09:06:20;;;;;;;0.63;0.63;;;;;;;;;;6284894;28;20370;-72
2023/11/01 09:09:25;;;;;;;0.70;0.70;;;;;;;;;;6285049;28;20307;-71
2023/11/01 09:12:29;;;;;;;0.53;0.53;;;;;;;;;;6261028;28;20307;-69
2023/11/01 09:15:33;;;;;;;0.70;0.70;;;;;;;;;;6260135;28;20596;-72
2023/11/01 09:18:38;;;;;;;1.23;1.23;;;;;;;;;;6260492;28;20300;-71
2023/11/01 09:21:42;;;;;;;1.10;0.80;;;;;;;;;;6260541;28;20295;-69
2023/11/01 09:24:46;;;;;;;0.80;0.80;;;;;;;;;;6259896;28;20300;-71
2023/11/01 09:27:49;;;;;;;0.80;0.80;;;;;;;;;;6259796;28;20295;-71
2023/11/01 09:30:53;;;;;;;0.80;0.80;;;;;;;;;;6260085;28;20674;-69
2023/11/01 09:33:58;;;;;;;0.77;0.77;;;;;;;;;;6259737;28;20312;-70
2023/11/01 09:37:02;;;;;;;0.70;0.70;;;;;;;;;;6260090;28;20296;-69
2023/11/01 09:40:10;;;;;;;0.90;0.90;;;;;;;;;;6259503;28;20663;-69
2023/11/01 09:43:20;;;;;;;0.90;0.90;;;;;;;;;;6259351;28;20600;-70
2023/11/01 09:46:24;;;;;;;3.20;0.97;;;;;;;;;;6259852;28;20287;-70
2023/11/01 09:49:30;;;;;;;1.23;0.90;;;;;;;;;;6259355;28;20307;-69
2023/11/01 09:52:35;;;;;;;0.80;0.80;;;;;;;;;;6259503;28;20306;-71
2023/11/01 09:55:38;;;;;;;1.00;1.00;;;;;;;;;;6258507;28;20295;-72
2023/11/01 09:58:42;;;;;;;0.87;0.87;;;;;;;;;;6258952;28;20291;-69
2023/11/01 10:01:46;;;;;;;0.70;0.70;;;;;;;;;;6258940;28;20319;-69
2023/11/01 10:04:51;;;;;;;0.70;0.70;;;;;;;;;;6258367;28;20343;-70
2023/11/01 10:07:56;;;;;;;1.00;1.00;;;;;;;;;;6258514;28;20300;-70
2023/11/01 10:11:01;;;;;;;0.70;0.70;;;;;;;;;;6271539;28;20295;-70
2023/11/01 10:14:04;;;;;;;0.70;0.70;;;;;;;;;;6283031;28;20298;-70
2023/11/01 10:17:08;;;;;;;0.80;0.80;;;;;;;;;;6282275;28;20623;-70
2023/11/01 10:20:23;;;;;;;0.70;0.70;;;;;;;;;;6282753;28;20307;-72
2023/11/01 10:23:27;;;;;;;0.70;0.70;;;;;;;;;;6282623;28;20295;-70
2023/11/01 10:26:31;;;;;;;0.80;0.80;;;;;;;;;;6283567;28;20299;-70
2023/11/01 10:29:42;;;;;;;0.70;0.70;;;;;;;;;;6281799;28;20344;-70
2023/11/01 10:32:57;;;;;;;0.70;0.70;;;;;;;;;;6282568;28;20427;-72
2023/11/01 10:36:04;;;;;;;0.80;0.80;;;;;;;;;;6281614;28;20291;-69
2023/11/01 10:39:09;;;;;;;0.75;0.75;;;;;;;;;;6282841;28;20295;-70
2023/11/01 10:42:15;;;;;;;1.07;1.07;;;;;;;;;;6283090;28;20299;-71
2023/11/01 10:45:19;;;;;;;0.80;0.80;;;;;;;;;;6282227;28;20290;-70
2023/11/01 10:48:22;;;;;;;0.98;0.98;;;;;;;;;;6282518;28;20299;-70
2023/11/01 10:51:27;;;;;;;0.80;0.80;;;;;;;;;;6282743;28;20633;-70
2023/11/01 10:54:32;;;;;;;4.77;4.37;;;;;;;;;;6281123;28;20326;-70
2023/11/01 10:57:36;;;;;;;1.40;1.40;;;;;;;;;;6282867;28;20477;-70
2023/11/01 11:00:44;;;;;;;0.80;0.80;;;;;;;;;;6283261;28;20495;-72
2023/11/01 11:03:53;;;;;;;0.70;0.70;;;;;;;;;;6282271;28;20300;-70
2023/11/01 11:07:03;;;;;;;1.17;0.80;;;;;;;;;;6282734;28;20603;-70
2023/11/01 11:10:22;;;;;;;1.13;1.13;;;;;;;;;;6281858;28;20560;-69
2023/11/01 11:13:29;;;;;;;3.80;1.30;;;;;;;;;;6281933;28;20283;-69
2023/11/01 11:17:07;;;;;;;1.30;1.20;;;;;;;;;;6282037;28;20302;-69
2023/11/01 11:20:11;;;;;;;1.20;1.20;;;;;;;;;;6281640;28;20489;-71
2023/11/01 11:23:17;;;;;;;1.17;1.17;;;;;;;;;;6281654;28;20295;-71
2023/11/01 11:26:38;;;;;;;0.83;0.83;;;;;;;;;;6282038;28;20318;-69
2023/11/01 11:29:45;;;;;;;0.70;0.70;;;;;;;;;;6280888;28;20360;-69
2023/11/01 11:33:06;;;;;;;0.70;0.70;;;;;;;;;;6281488;28;20269;-72
2023/11/01 11:36:14;;;;;;;0.70;0.70;;;;;;;;;;6281679;28;20291;-70
2023/11/01 11:39:20;;;;;;;0.77;0.77;;;;;;;;;;6281291;28;20291;-70
2023/11/01 11:42:47;;;;;;;0.80;0.80;;;;;;;;;;6281489;28;20587;-70
2023/11/01 11:45:52;;;;;;;0.90;0.90;;;;;;;;;;6280259;28;20295;-69
2023/11/01 11:48:56;;;;;;;0.70;0.70;;;;;;;;;;6281036;28;20298;-68
2023/11/01 11:52:01;;;;;;;0.93;0.93;;;;;;;;;;6281009;28;20299;-71
2023/11/01 11:55:07;;;;;;;0.60;0.60;;;;;;;;;;6278839;28;20383;-70
2023/11/01 11:58:11;;;;;;;0.80;0.80;;;;;;;;;;6280775;28;20300;-70
2023/11/01 12:01:25;;;;;;;0.70;0.70;;;;;;;;;;6280921;28;20305;-71
2023/11/01 12:04:32;;;;;;;1.13;0.70;;;;;;;;;;6280551;28;20327;-70
2023/11/01 12:07:43;;;;;;;0.90;0.90;;;;;;;;;;6280929;28;20303;-70
2023/11/01 12:10:52;;;;;;;0.87;0.87;;;;;;;;;;6268076;28;20312;-71
2023/11/01 12:13:55;;;;;;;1.03;1.03;;;;;;;;;;6255764;28;20292;-71
2023/11/01 12:17:00;;;;;;;0.80;0.80;;;;;;;;;;6255921;28;20288;-70
2023/11/01 12:20:06;;;;;;;1.33;0.80;;;;;;;;;;6255443;28;20613;-71
2023/11/01 12:23:09;;;;;;;0.60;0.60;;;;;;;;;;6255207;28;20616;-70
2023/11/01 12:26:14;;;;;;;0.80;0.80;;;;;;;;;;6255844;28;20291;-69
2023/11/01 12:29:18;;;;;;;0.80;0.80;;;;;;;;;;6255376;28;20331;-69
2023/11/01 12:32:30;;;;;;;0.70;0.70;;;;;;;;;;6256134;28;20307;-69
2023/11/01 12:35:44;;;;;;;0.70;0.70;;;;;;;;;;6254653;28;20316;-72
2023/11/01 12:38:49;;;;;;;0.60;0.60;;;;;;;;;;6255277;28;20315;-71
2023/11/01 12:41:54;;;;;;;0.80;0.80;;;;;;;;;;6259328;28;20429;-71
2023/11/01 12:44:58;;;;;;;0.60;0.60;;;;;;;;;;6260097;28;20303;-69
2023/11/01 12:48:02;;;;;;;0.70;0.70;;;;;;;;;;6260637;28;20314;-70
2023/11/01 12:51:08;;;;;;;0.60;0.60;;;;;;;;;;6260659;28;20290;-71
2023/11/01 12:54:12;;;;;;;0.67;0.67;;;;;;;;;;6258624;28;20557;-71
2023/11/01 12:57:17;;;;;;;0.70;0.70;;;;;;;;;;6260718;28;20405;-72
2023/11/01 13:00:23;;;;;;;0.77;0.77;;;;;;;;;;6260195;28;20295;-70
2023/11/01 13:03:27;;;;;;;0.90;0.90;;;;;;;;;;6258835;28;20479;-71
2023/11/01 13:06:31;;;;;;;1.20;0.70;;;;;;;;;;6260512;28;20307;-71
2023/11/01 13:09:35;;;;;;;0.63;0.63;;;;;;;;;;6261072;28;20287;-71
2023/11/01 13:12:41;;;;;;;0.70;0.70;;;;;;;;;;6284361;28;20302;-71
2023/11/01 13:15:44;;;;;;;0.50;0.50;;;;;;;;;;6284959;28;20536;-70
2023/11/01 13:18:48;;;;;;;0.70;0.70;;;;;;;;;;6284107;28;20299;-69
2023/11/01 13:21:52;;;;;;;1.00;1.00;;;;;;;;;;6284604;28;20367;-69
2023/11/01 13:24:56;;;;;;;0.90;0.90;;;;;;;;;;6284086;28;20326;-70
2023/11/01 13:28:01;;;;;;;0.80;0.80;;;;;;;;;;6283971;28;20307;-70
2023/11/01 13:31:05;;;;;;;0.70;0.70;;;;;;;;;;6284437;28;20294;-70
2023/11/01 13:34:09;;;;;;;0.80;0.80;;;;;;;;;;6283856;28;20506;-71
2023/11/01 13:37:14;;;;;;;0.73;0.73;;;;;;;;;;6284526;28;20556;-71
2023/11/01 13:40:18;;;;;;;0.80;0.80;;;;;;;;;;6284042;28;20286;-73
2023/11/01 13:43:24;;;;;;;0.70;0.70;;;;;;;;;;6284038;28;20374;-72
2023/11/01 13:46:27;;;;;;;0.90;0.90;;;;;;;;;;6284683;28;20307;-70
2023/11/01 13:49:32;;;;;;;0.70;0.70;;;;;;;;;;6284039;28;20294;-71
2023/11/01 13:52:36;;;;;;;0.60;0.60;;;;;;;;;;6283570;28;20298;-70
2023/11/01 13:55:45;;;;;;;1.90;0.70;;;;;;;;;;6283207;28;20488;-70
2023/11/01 13:58:54;;;;;;;0.70;0.70;;;;;;;;;;6283745;28;20299;-70
2023/11/01 14:01:57;;;;;;;0.80;0.80;;;;;;;;;;6284000;28;20299;-72
2023/11/01 14:05:01;;;;;;;2.20;0.80;;;;;;;;;;6283322;28;20556;-71
2023/11/01 14:08:05;;;;;;;0.70;0.70;;;;;;;;;;6283198;28;20286;-70
2023/11/01 14:11:10;;;;;;;1.13;0.90;;;;;;;;;;6284059;28;20303;-70
2023/11/01 14:14:15;;;;;;;0.90;0.90;;;;;;;;;;6283481;28;20324;-71
2023/11/01 14:17:19;;;;;;;1.23;0.97;;;;;;;;;;6283527;28;20452;-70
2023/11/01 14:20:22;;;;;;;1.10;1.10;;;;;;;;;;6282957;28;20317;-71
2023/11/01 14:23:26;;;;;;;0.80;0.80;;;;;;;;;;6282745;28;20404;-72
2023/11/01 14:26:30;;;;;;;0.90;0.90;;;;;;;;;;6283388;28;20302;-70
2023/11/01 14:29:35;;;;;;;0.90;0.90;;;;;;;;;;6282297;28;20306;-70
2023/11/01 14:32:39;;;;;;;1.10;1.10;;;;;;;;;;6282538;28;20287;-70
2023/11/01 14:35:43;;;;;;;1.00;1.00;;;;;;;;;;6282920;28;20259;-70
2023/11/01 14:38:47;;;;;;;5.23;4.73;;;;;;;;;;6282448;28;20591;-70
2023/11/01 14:41:51;;;;;;;1.20;1.10;;;;;;;;;;6282684;28;20458;-72
2023/11/01 14:44:57;;;;;;;2.37;1.00;;;;;;;;;;6282498;28;20311;-70
2023/11/01 14:48:00;;;;;;;0.93;0.93;;;;;;;;;;6282168;28;20289;-69
2023/11/01 14:51:05;;;;;;;1.70;0.90;;;;;;;;;;6282377;28;20346;-70
2023/11/01 14:54:09;;;;;;;5.67;0.87;;;;;;;;;;6280380;28;20298;-70
2023/11/01 14:57:13;;;;;;;0.93;0.93;;;;;;;;;;6282699;28;20284;-70
2023/11/01 15:00:19;;;;;;;1.00;1.00;;;;;;;;;;6281915;28;20295;-70
2023/11/01 15:03:23;;;;;;;0.90;0.90;;;;;;;;;;6281621;28;20286;-70
2023/11/01 15:06:27;;;;;;;0.90;0.90;;;;;;;;;;6282312;28;20306;-69
2023/11/01 15:09:31;;;;;;;4.53;0.90;;;;;;;;;;6281881;28;20468;-71
2023/11/01 15:12:38;;;;;;;0.73;0.73;;;;;;;;;;6281475;28;20382;-70
2023/11/01 15:15:43;;;;;;;1.00;1.00;;;;;;;;;;6282034;28;20282;-69
2023/11/01 15:18:47;;;;;;;0.80;0.80;;;;;;;;;;6281401;28;20307;-70
2023/11/01 15:21:50;;;;;;;1.03;0.90;;;;;;;;;;6282059;28;20294;-69
2023/11/01 15:24:54;;;;;;;4.40;0.80;;;;;;;;;;6281825;28;20302;-70
2023/11/01 15:27:58;;;;;;;0.60;0.60;;;;;;;;;;6281623;28;20310;-70
2023/11/01 15:31:04;;;;;;;1.20;0.80;;;;;;;;;;6281793;28;20317;-70
2023/11/01 15:34:08;;;;;;;0.90;0.90;;;;;;;;;;6281014;28;20393;-69
2023/11/01 15:37:12;;;;;;;0.73;0.73;;;;;;;;;;6281232;28;20298;-70
2023/11/01 15:40:16;;;;;;;0.53;0.53;;;;;;;;;;6281560;28;20298;-70
2023/11/01 15:43:20;;;;;;;0.70;0.70;;;;;;;;;;6281316;28;20296;-70
2023/11/01 15:46:26;;;;;;;0.80;0.70;;;;;;;;;;6281964;28;20297;-70
2023/11/01 15:49:30;;;;;;;1.37;0.70;;;;;;;;;;6280604;28;20303;-70
2023/11/01 15:52:34;;;;;;;5.33;0.70;;;;;;;;;;6280990;28;20606;-71
2023/11/01 15:55:38;;;;;;;0.60;0.60;;;;;;;;;;6278553;28;20302;-71
2023/11/01 15:58:41;;;;;;;0.70;0.70;;;;;;;;;;6280647;28;20302;-71
2023/11/01 16:01:49;;;;;;;0.80;0.80;;;;;;;;;;6281030;28;20303;-70
2023/11/01 16:04:52;;;;;;;0.80;0.80;;;;;;;;;;6280898;28;20473;-70
2023/11/01 16:07:56;;;;;;;1.80;0.87;;;;;;;;;;6280484;28;20291;-71
2023/11/01 16:11:01;;;;;;;0.80;0.80;;;;;;;;;;6280775;28;20308;-71
2023/11/01 16:14:04;;;;;;;0.60;0.60;;;;;;;;;;6279631;28;20306;-69
2023/11/01 16:17:10;;;;;;;0.80;0.80;;;;;;;;;;6280954;28;20302;-70
2023/11/01 16:20:14;;;;;;;0.83;0.83;;;;;;;;;;6280372;28;20310;-71
2023/11/01 16:23:18;;;;;;;0.70;0.70;;;;;;;;;;6280086;28;20310;-72
2023/11/01 16:26:22;;;;;;;0.90;0.90;;;;;;;;;;6280600;28;20302;-70
2023/11/01 16:29:27;;;;;;;1.50;0.97;;;;;;;;;;6278482;28;20483;-70
2023/11/01 16:32:32;;;;;;;1.20;1.20;;;;;;;;;;6280946;28;20322;-70
2023/11/01 16:35:36;;;;;;;0.80;0.80;;;;;;;;;;6279085;28;20294;-70
2023/11/01 16:38:40;;;;;;;0.90;0.90;;;;;;;;;;6280039;28;20297;-71
2023/11/01 16:41:44;;;;;;;1.37;0.80;;;;;;;;;;6280364;28;20262;-70
2023/11/01 16:44:48;;;;;;;7.10;0.80;;;;;;;;;;6280404;28;20319;-70
2023/11/01 16:47:54;;;;;;;1.33;0.80;;;;;;;;;;6280177;28;20251;-70
2023/11/01 16:50:58;;;;;;;0.70;0.70;;;;;;;;;;6280505;28;20298;-71
2023/11/01 16:54:02;;;;;;;0.70;0.70;;;;;;;;;;6278094;28;20314;-72
2023/11/01 16:57:06;;;;;;;0.80;0.70;;;;;;;;;;6280122;28;20318;-70
2023/11/01 17:00:10;;;;;;;0.70;0.70;;;;;;;;;;6280119;28;20307;-69
2023/11/01 17:03:15;;;;;;;2.67;0.93;;;;;;;;;;6279969;28;20373;-71
2023/11/01 17:06:19;;;;;;;0.80;0.80;;;;;;;;;;6280273;28;20291;-70
2023/11/01 17:09:23;;;;;;;0.80;0.80;;;;;;;;;;6279865;28;20298;-71
2023/11/01 17:12:27;;;;;;;2.30;0.70;;;;;;;;;;6255226;28;20351;-71
2023/11/01 17:15:30;;;;;;;2.23;0.80;;;;;;;;;;6255080;28;20311;-71
2023/11/01 17:18:38;;;;;;;1.30;0.80;;;;;;;;;;6255051;28;20619;-70
2023/11/01 17:21:43;;;;;;;0.80;0.80;;;;;;;;;;6255859;28;20304;-71
2023/11/01 17:24:47;;;;;;;0.80;0.80;;;;;;;;;;6255365;28;20296;-71
2023/11/01 17:27:51;;;;;;;0.80;0.80;;;;;;;;;;6259435;28;20296;-71
2023/11/01 17:30:55;;;;;;;1.80;0.80;;;;;;;;;;6259799;28;20619;-69
2023/11/01 17:34:00;;;;;;;0.93;0.70;;;;;;;;;;6259611;28;20291;-70
2023/11/01 17:37:05;;;;;;;0.80;0.80;;;;;;;;;;6259455;28;20574;-70
2023/11/01 17:40:09;;;;;;;0.60;0.60;;;;;;;;;;6259200;28;20311;-71
2023/11/01 17:43:14;;;;;;;0.80;0.80;;;;;;;;;;6259376;28;20303;-70
2023/11/01 17:46:19;;;;;;;0.80;0.80;;;;;;;;;;6259285;28;20299;-71
2023/11/01 17:49:50;;;;;;;1.20;0.70;;;;;;;;;;6259028;28;20303;-71
2023/11/01 17:52:56;;;;;;;0.80;0.80;;;;;;;;;;6257258;28;20303;-70
2023/11/01 17:56:00;;;;;;;0.80;0.80;;;;;;;;;;6259583;28;20284;-70
2023/11/01 17:59:04;;;;;;;0.60;0.60;;;;;;;;;;6258493;28;20314;-70
2023/11/01 18:02:46;;;;;;;1.77;0.87;;;;;;;;;;6259013;28;20294;-70
2023/11/01 18:05:53;;;;;;;0.87;0.80;;;;;;;;;;6257564;28;20492;-71
2023/11/01 18:09:01;;;;;;;0.80;0.80;;;;;;;;;;6258388;28;20302;-70
2023/11/01 18:12:06;;;;;;;0.70;0.70;;;;;;;;;;6280604;28;20313;-69
2023/11/01 18:15:11;;;;;;;0.80;0.80;;;;;;;;;;6281326;28;20300;-71
2023/11/01 18:18:27;;;;;;;0.93;0.87;;;;;;;;;;6283174;28;20297;-70
2023/11/01 18:21:34;;;;;;;0.70;0.70;;;;;;;;;;6283559;28;20295;-70
2023/11/01 18:24:40;;;;;;;0.70;0.70;;;;;;;;;;6282709;28;20299;-70
2023/11/01 18:27:44;;;;;;;0.60;0.60;;;;;;;;;;6282642;28;20289;-70
2023/11/01 18:30:47;;;;;;;1.37;0.80;;;;;;;;;;6283004;28;20301;-69